createdAt,value
2023-04-22T00:02:13.268Z,99390.03
2023-04-22T00:04:41.856Z,99390.03
2023-04-22T00:07:08.894Z,99385.75
2023-04-22T00:09:36.162Z,99384.88
2023-04-22T00:12:03.084Z,99377.13
2023-04-22T00:14:29.705Z,99378.88
2023-04-22T00:16:56.648Z,99374.63
2023-04-22T00:19:23.473Z,99369.44
2023-04-22T00:21:50.626Z,99369.44
2023-04-22T00:24:17.204Z,99365.97
2023-04-22T00:26:43.844Z,99359.09
2023-04-22T00:29:10.479Z,99357.34
2023-04-22T00:31:37.104Z,99350.47
2023-04-22T00:34:03.712Z,99353.06
2023-04-22T00:36:31.419Z,99354.78
2023-04-22T00:38:58.170Z,99353.03
2023-04-22T00:41:25.097Z,99351.34
2023-04-22T00:43:52.539Z,99351.34
2023-04-22T00:46:21.004Z,99347.91
2023-04-22T00:48:48.457Z,99340.16
2023-04-22T00:51:15.030Z,99330.69
2023-04-22T00:53:41.671Z,99330.69
2023-04-22T00:56:08.359Z,99320.38
2023-04-22T00:58:35.168Z,99317.81
2023-04-22T01:01:02.216Z,99316.97
2023-04-22T01:03:30.795Z,99315.25
2023-04-22T01:05:58.499Z,99313.56
2023-04-22T01:08:28.781Z,99311.88
2023-04-22T01:10:57.045Z,99311.91
2023-04-22T01:13:24.209Z,99310.22
2023-04-22T01:15:52.987Z,99303.34
2023-04-22T01:18:20.010Z,99299.06
2023-04-22T01:20:46.703Z,99294.78
2023-04-22T01:23:22.402Z,99293.09
2023-04-22T01:25:49.458Z,99291.38
2023-04-22T01:28:17.050Z,99287.94
2023-04-22T01:30:44.001Z,99279.31
2023-04-22T01:33:11.778Z,99272.47
2023-04-22T01:35:39.095Z,99272.47
2023-04-22T01:38:08.920Z,99270.75
2023-04-22T01:40:35.584Z,99274.19
2023-04-22T01:43:02.887Z,99267.28
2023-04-22T01:45:29.945Z,99262.13
2023-04-22T01:47:56.552Z,99255.25
2023-04-22T01:50:23.884Z,99256.09
2023-04-22T01:52:50.747Z,99250.09
2023-04-22T01:55:17.458Z,99245.75
2023-04-22T01:57:44.231Z,99244.91
2023-04-22T02:00:11.694Z,99241.47
2023-04-22T02:02:38.394Z,99241.47
2023-04-22T02:05:07.405Z,99250.09
2023-04-22T02:07:34.503Z,99243.25
2023-04-22T02:10:02.147Z,99251.00
2023-04-22T02:12:28.921Z,99249.25
2023-04-22T02:14:55.647Z,99241.50
2023-04-22T02:17:22.381Z,99249.25
2023-04-22T02:19:48.965Z,99251.00
2023-04-22T02:22:15.883Z,99251.88
2023-04-22T02:24:43.150Z,99252.75
2023-04-22T02:27:09.836Z,99243.31
2023-04-22T02:29:36.420Z,99251.94
2023-04-22T02:32:03.001Z,99251.94
2023-04-22T02:34:29.515Z,99246.81
2023-04-22T02:36:56.359Z,99239.97
2023-04-22T02:39:22.911Z,99235.69
2023-04-22T02:41:49.455Z,99228.84
2023-04-22T02:44:15.983Z,99224.56
2023-04-22T02:46:42.596Z,99215.94
2023-04-22T02:49:09.173Z,99219.44
2023-04-22T02:51:38.571Z,99218.59
2023-04-22T02:54:05.337Z,99222.88
2023-04-22T02:56:31.887Z,99222.88
2023-04-22T02:58:58.442Z,99218.56
2023-04-22T03:01:25.062Z,99217.72
2023-04-22T03:03:51.887Z,99217.69
2023-04-22T03:06:18.871Z,99214.22
2023-04-22T03:08:45.500Z,99210.78
2023-04-22T03:11:13.886Z,99215.06
2023-04-22T03:13:40.689Z,99221.06
2023-04-22T03:16:07.572Z,99212.44
2023-04-22T03:18:34.280Z,99206.44
2023-04-22T03:21:01.016Z,99207.28
2023-04-22T03:23:27.559Z,99203.00
2023-04-22T03:25:54.090Z,99203.00
2023-04-22T03:28:20.704Z,99193.50
2023-04-22T03:30:48.496Z,99195.25
2023-04-22T03:33:15.170Z,99190.06
2023-04-22T03:35:41.807Z,99189.22
2023-04-22T03:38:08.509Z,99181.47
2023-04-22T03:40:35.090Z,99176.28
2023-04-22T03:43:01.642Z,99180.59
2023-04-22T03:45:28.765Z,99172.00
2023-04-22T03:47:55.691Z,99172.81
2023-04-22T03:50:22.312Z,99171.13
2023-04-22T03:52:48.895Z,99175.41
2023-04-22T03:55:15.584Z,99171.13
2023-04-22T03:57:42.149Z,99165.97
2023-04-22T04:00:09.391Z,99163.38
2023-04-22T04:02:36.048Z,99155.63
2023-04-22T04:05:02.959Z,99147.88
2023-04-22T04:07:29.878Z,99156.50
2023-04-22T04:09:56.481Z,99143.59
2023-04-22T04:12:22.983Z,99149.59
2023-04-22T04:14:49.592Z,99147.88
2023-04-22T04:17:16.664Z,99141.84
2023-04-22T04:19:43.361Z,99142.72
2023-04-22T04:22:10.690Z,99132.44
2023-04-22T04:24:37.292Z,99129.84
2023-04-22T04:27:04.027Z,99131.59
2023-04-22T04:29:30.547Z,99126.44
2023-04-22T04:31:57.093Z,99122.13
2023-04-22T04:34:23.665Z,99123.00
2023-04-22T04:36:50.683Z,99126.47
2023-04-22T04:39:17.539Z,99124.75
2023-04-22T04:41:45.135Z,99123.00
2023-04-22T04:44:12.233Z,99119.59
2023-04-22T04:46:38.966Z,99117.84
2023-04-22T04:49:05.559Z,99117.84
2023-04-22T04:51:33.299Z,99123.00
2023-04-22T04:53:59.833Z,99119.59
2023-04-22T04:56:26.416Z,99119.59
2023-04-22T04:58:52.995Z,99112.69
2023-04-22T05:01:19.830Z,99113.56
2023-04-22T05:03:46.613Z,99113.59
2023-04-22T05:06:13.443Z,99116.19
2023-04-22T05:08:40.100Z,99109.34
2023-04-22T05:11:06.795Z,99108.53
2023-04-22T05:13:33.423Z,99105.16
2023-04-22T05:16:00.207Z,99106.91
2023-04-22T05:18:26.906Z,99112.16
2023-04-22T05:20:53.570Z,99100.97
2023-04-22T05:23:20.204Z,99097.59
2023-04-22T05:25:46.806Z,99101.06
2023-04-22T05:28:13.408Z,99094.22
2023-04-22T05:30:39.917Z,99083.03
2023-04-22T05:33:08.564Z,99099.41
2023-04-22T05:35:35.659Z,99096.00
2023-04-22T05:38:03.088Z,99102.88
2023-04-22T05:40:29.685Z,99101.19
2023-04-22T05:42:57.225Z,99101.19
2023-04-22T05:45:23.784Z,99101.19
2023-04-22T05:47:50.410Z,99092.56
2023-04-22T05:50:17.021Z,99108.03
2023-04-22T05:52:43.606Z,99101.16
2023-04-22T05:55:10.221Z,99102.84
2023-04-22T05:57:36.824Z,99097.66
2023-04-22T06:00:04.886Z,99097.59
2023-04-22T06:02:31.680Z,99098.47
2023-04-22T06:04:58.771Z,99104.44
2023-04-22T06:07:25.682Z,99107.88
2023-04-22T06:10:02.196Z,99108.69
2023-04-22T06:12:30.691Z,99099.16
2023-04-22T06:14:57.227Z,99092.25
2023-04-22T06:17:23.859Z,99095.66
2023-04-22T06:19:50.472Z,99096.50
2023-04-22T06:22:17.010Z,99083.53
2023-04-22T06:24:43.911Z,99091.25
2023-04-22T06:27:11.330Z,99086.91
2023-04-22T06:29:38.118Z,99090.31
2023-04-22T06:32:04.848Z,99090.19
2023-04-22T06:34:31.426Z,99099.56
2023-04-22T06:36:58.052Z,99096.03
2023-04-22T06:39:24.620Z,99096.78
2023-04-22T06:41:51.186Z,99099.97
2023-04-22T06:44:17.748Z,99105.41
2023-04-22T06:46:44.316Z,99111.72
2023-04-22T06:49:10.910Z,99105.22
2023-04-22T06:51:37.681Z,99098.09
2023-04-22T06:54:04.342Z,99101.13
2023-04-22T06:56:31.055Z,99103.94
2023-04-22T06:58:57.586Z,99098.94
2023-04-22T07:01:24.460Z,99101.69
2023-04-22T07:03:51.211Z,99094.81
2023-04-22T07:06:17.948Z,99100.09
2023-04-22T07:08:44.651Z,99110.78
2023-04-22T07:11:13.193Z,99110.44
2023-04-22T07:13:41.398Z,99106.84
2023-04-22T07:16:08.106Z,99106.34
2023-04-22T07:18:35.962Z,99103.94
2023-04-22T07:21:02.647Z,99111.28
2023-04-22T07:23:29.297Z,99104.06
2023-04-22T07:25:55.841Z,99102.94
2023-04-22T07:28:22.379Z,99115.66
2023-04-22T07:30:48.958Z,99122.97
2023-04-22T07:33:15.503Z,99118.25
2023-04-22T07:35:42.230Z,99118.59
2023-04-22T07:38:09.849Z,99120.59
2023-04-22T07:40:37.224Z,99126.06
2023-04-22T07:43:05.725Z,99129.66
2023-04-22T07:45:33.253Z,99124.50
2023-04-22T07:47:59.990Z,99121.03
2023-04-22T07:50:26.690Z,99110.59
2023-04-22T07:52:53.262Z,99106.19
2023-04-22T07:55:19.805Z,99104.06
2023-04-22T07:57:46.400Z,99101.53
2023-04-22T08:00:14.602Z,99103.78
2023-04-22T08:02:41.492Z,99107.97
2023-04-22T08:05:08.407Z,99094.88
2023-04-22T08:07:35.037Z,99086.28
2023-04-22T08:10:01.633Z,99088.81
2023-04-22T08:12:29.219Z,99084.91
2023-04-22T08:14:55.877Z,99099.53
2023-04-22T08:17:22.964Z,99090.00
2023-04-22T08:19:50.196Z,99093.75
2023-04-22T08:22:18.619Z,99096.75
2023-04-22T08:24:45.174Z,99102.25
2023-04-22T08:27:11.819Z,99089.84
2023-04-22T08:29:38.886Z,99096.66
2023-04-22T08:32:05.821Z,99080.38
2023-04-22T08:34:32.518Z,99078.94
2023-04-22T08:36:59.292Z,99086.00
2023-04-22T08:39:25.923Z,99092.50
2023-04-22T08:41:53.376Z,99090.22
2023-04-22T08:44:21.898Z,99092.91
2023-04-22T08:46:49.175Z,99089.81
2023-04-22T08:49:16.360Z,99088.78
2023-04-22T08:51:44.161Z,99088.72
2023-04-22T08:54:11.429Z,99092.94
2023-04-22T08:56:43.447Z,99093.81
2023-04-22T08:59:11.587Z,99087.94
2023-04-22T09:01:41.361Z,99092.59
2023-04-22T09:04:09.673Z,99094.34
2023-04-22T09:06:37.907Z,99087.66
2023-04-22T09:09:04.606Z,99089.78
2023-04-22T09:11:32.559Z,99086.09
2023-04-22T09:13:59.182Z,99087.91
2023-04-22T09:16:25.820Z,99078.75
2023-04-22T09:18:52.393Z,99077.59
2023-04-22T09:21:19.059Z,99077.63
2023-04-22T09:26:24.464Z,99078.75
2023-04-22T09:28:54.854Z,99084.09
2023-04-22T09:31:22.805Z,99071.38
2023-04-22T09:33:52.944Z,99080.91
2023-04-22T09:36:26.164Z,99086.22
2023-04-22T09:38:54.695Z,99084.03
2023-04-22T09:41:39.277Z,99083.34
2023-04-22T09:44:11.101Z,99080.72
2023-04-22T09:46:37.834Z,99082.66
2023-04-22T09:49:04.383Z,99086.84
2023-04-22T09:51:32.007Z,99081.22
2023-04-22T09:56:52.253Z,99074.72
2023-04-22T09:59:24.031Z,99068.84
2023-04-22T10:01:53.870Z,99074.72
2023-04-22T10:04:23.356Z,99076.09
2023-04-22T10:06:50.116Z,99071.81
2023-04-22T10:09:20.118Z,99080.34
2023-04-22T10:11:48.070Z,99075.22
2023-04-22T10:14:14.840Z,99079.19
2023-04-22T10:16:45.320Z,99066.81
2023-04-22T10:19:16.969Z,99065.81
2023-04-22T10:21:45.892Z,99062.41
2023-04-22T10:24:18.065Z,99069.78
2023-04-22T10:29:21.791Z,99060.63
2023-04-22T10:34:32.642Z,99059.88
2023-04-22T10:39:38.571Z,99056.47
2023-04-22T10:42:11.815Z,99057.84
2023-04-22T10:47:38.975Z,99052.00
2023-04-22T10:52:52.859Z,99050.53
2023-04-22T10:55:19.656Z,99060.16
2023-04-22T10:57:47.975Z,99060.09
2023-04-22T11:00:22.628Z,99059.88
2023-04-22T11:03:12.570Z,99058.19
2023-04-22T11:05:40.092Z,99049.19
2023-04-22T11:10:50.868Z,99045.94
2023-04-22T11:13:21.287Z,99042.28
2023-04-22T11:15:51.803Z,99041.44
2023-04-22T11:18:22.561Z,99044.41
2023-04-22T11:20:50.803Z,99040.84
2023-04-22T11:23:19.761Z,99043.47
2023-04-22T11:25:46.629Z,99047.03
2023-04-22T11:28:13.599Z,99044.47
2023-04-22T11:30:40.282Z,99048.72
2023-04-22T11:33:06.918Z,99029.88
2023-04-22T11:35:35.196Z,99026.19
2023-04-22T11:38:04.201Z,99024.16
2023-04-22T11:43:08.985Z,99024.78
2023-04-22T11:45:36.822Z,99034.53
2023-04-22T11:48:05.946Z,99034.88
2023-04-22T11:50:35.364Z,99034.59
2023-04-22T11:53:04.123Z,99031.38
2023-04-22T11:55:34.782Z,99037.63
2023-04-22T11:58:11.642Z,99031.38
2023-04-22T12:00:43.736Z,99029.50
2023-04-22T12:03:21.176Z,99027.16
2023-04-22T12:05:52.929Z,99039.09
2023-04-22T12:10:59.055Z,99042.03
2023-04-22T12:13:28.890Z,99041.88
2023-04-22T12:15:57.727Z,99043.56
2023-04-22T12:18:48.245Z,99054.19
2023-04-22T12:21:16.799Z,99057.44
2023-04-22T12:23:45.916Z,99057.25
2023-04-22T12:26:13.634Z,99051.09
2023-04-22T12:28:41.156Z,99050.34
2023-04-22T12:31:09.143Z,99054.47
2023-04-22T12:33:37.071Z,99056.59
2023-04-22T12:36:04.711Z,99047.28
2023-04-22T12:38:31.437Z,99054.03
2023-04-22T12:40:58.723Z,99050.91
2023-04-22T12:43:26.065Z,99050.84
2023-04-22T12:45:52.839Z,99062.00
2023-04-22T12:48:19.458Z,99057.75
2023-04-22T12:50:46.393Z,99064.03
2023-04-22T12:53:13.051Z,99063.44
2023-04-22T12:55:39.872Z,99075.97
2023-04-22T12:58:06.496Z,99072.09
2023-04-22T13:00:33.399Z,99063.66
2023-04-22T13:03:00.603Z,99068.31
2023-04-22T13:05:27.429Z,99074.03
2023-04-22T13:08:05.915Z,99067.94
2023-04-22T13:10:33.853Z,99056.75
2023-04-22T13:13:16.179Z,99067.41
2023-04-22T13:15:54.128Z,99059.63
2023-04-22T13:18:22.553Z,99058.75
2023-04-22T13:20:49.250Z,99062.75
2023-04-22T13:23:17.167Z,99065.44
2023-04-22T13:25:44.111Z,99062.91
2023-04-22T13:28:11.563Z,99062.59
2023-04-22T13:30:38.637Z,99061.38
2023-04-22T13:33:05.394Z,99053.38
2023-04-22T13:35:31.988Z,99061.81
2023-04-22T13:37:59.137Z,99052.88
2023-04-22T13:40:27.499Z,99052.50
2023-04-22T13:42:54.657Z,99051.78
2023-04-22T13:45:21.420Z,99054.25
2023-04-22T13:47:48.072Z,99046.22
2023-04-22T13:50:14.669Z,99039.78
2023-04-22T13:52:41.498Z,99042.31
2023-04-22T13:55:08.821Z,99032.66
2023-04-22T13:57:35.502Z,99045.31
2023-04-22T14:00:02.224Z,99044.78
2023-04-22T14:02:28.918Z,99036.84
2023-04-22T14:04:55.580Z,99035.69
2023-04-22T14:07:22.277Z,99034.19
2023-04-22T14:09:48.851Z,99039.63
2023-04-22T14:12:15.453Z,99040.06
2023-04-22T14:14:42.313Z,99034.16
2023-04-22T14:17:09.064Z,99035.47
2023-04-22T14:19:39.626Z,99034.72
2023-04-22T14:22:06.774Z,99030.22
2023-04-22T14:24:33.415Z,99033.56
2023-04-22T14:27:01.826Z,99033.06
2023-04-22T14:29:29.891Z,99035.78
2023-04-22T14:31:57.740Z,99033.06
2023-04-22T14:34:24.527Z,99030.38
2023-04-22T14:36:51.117Z,99026.53
2023-04-22T14:39:17.655Z,99026.22
2023-04-22T14:41:44.339Z,99018.34
2023-04-22T14:44:10.945Z,99013.03
2023-04-22T14:46:37.605Z,99018.78
2023-04-22T14:49:04.308Z,99014.00
2023-04-22T14:51:31.688Z,99012.97
2023-04-22T14:53:58.307Z,99011.16
2023-04-22T14:56:25.322Z,99021.13
2023-04-22T14:58:51.857Z,99025.47
2023-04-22T15:01:18.803Z,99020.81
2023-04-22T15:03:45.545Z,99024.75
2023-04-22T15:06:12.215Z,99026.81
2023-04-22T15:08:40.032Z,99013.03
2023-04-22T15:11:06.883Z,99015.25
2023-04-22T15:13:33.472Z,99018.25
2023-04-22T15:16:00.157Z,99018.78
2023-04-22T15:18:26.899Z,99013.84
2023-04-22T15:20:53.422Z,99012.06
2023-04-22T15:23:19.975Z,99007.69
2023-04-22T15:25:46.544Z,99009.66
2023-04-22T15:28:13.858Z,99012.13
2023-04-22T15:30:40.791Z,99003.84
2023-04-22T15:33:07.416Z,99007.09
2023-04-22T15:35:33.989Z,99002.84
2023-04-22T15:38:01.476Z,99006.53
2023-04-22T15:40:28.034Z,99014.63
2023-04-22T15:42:54.592Z,99008.44
2023-04-22T15:45:21.447Z,99003.00
2023-04-22T15:47:48.102Z,99007.38
2023-04-22T15:50:15.445Z,99009.38
2023-04-22T15:52:42.074Z,99003.53
2023-04-22T15:55:09.419Z,98999.50
2023-04-22T15:57:36.202Z,98999.38
2023-04-22T16:00:13.509Z,98994.03
2023-04-22T16:02:42.151Z,98990.78
2023-04-22T16:05:09.341Z,98980.31
2023-04-22T16:07:35.948Z,98985.13
2023-04-22T16:10:02.892Z,98987.16
2023-04-22T16:12:30.160Z,98989.47
2023-04-22T16:14:57.942Z,98979.00
2023-04-22T16:17:24.826Z,98970.84
2023-04-22T16:19:51.697Z,98980.16
2023-04-22T16:22:18.270Z,98979.03
2023-04-22T16:24:44.912Z,98974.22
2023-04-22T16:27:16.450Z,98976.19
2023-04-22T16:29:43.803Z,98968.50
2023-04-22T16:32:11.018Z,98974.50
2023-04-22T16:34:38.395Z,98974.91
2023-04-22T16:37:05.524Z,98968.81
2023-04-22T16:39:32.382Z,98970.50
2023-04-22T16:41:59.084Z,98966.94
2023-04-22T16:44:25.814Z,98959.09
2023-04-22T16:46:52.350Z,98965.06
2023-04-22T16:49:18.971Z,98965.97
2023-04-22T16:51:45.794Z,98963.34
2023-04-22T16:54:12.352Z,98964.41
2023-04-22T16:56:38.891Z,98960.50
2023-04-22T16:59:05.524Z,98953.06
2023-04-22T17:01:32.148Z,98960.00
2023-04-22T17:03:58.920Z,98961.84
2023-04-22T17:06:27.478Z,98957.84
2023-04-22T17:08:54.202Z,98958.38
2023-04-22T17:11:20.828Z,98947.34
2023-04-22T17:13:47.378Z,98945.94
2023-04-22T17:16:13.975Z,98950.44
2023-04-22T17:18:40.582Z,98942.00
2023-04-22T17:21:07.158Z,98946.59
2023-04-22T17:23:33.841Z,98935.50
2023-04-22T17:26:00.437Z,98936.59
2023-04-22T17:28:27.155Z,98937.59
2023-04-22T17:30:53.776Z,98931.75
2023-04-22T17:33:20.347Z,98939.91
2023-04-22T17:35:46.869Z,98936.84
2023-04-22T17:38:14.180Z,98936.28
2023-04-22T17:40:40.983Z,98933.19
2023-04-22T17:43:07.534Z,98941.41
2023-04-22T17:45:34.052Z,98930.56
2023-04-22T17:48:00.789Z,98928.97
2023-04-22T17:50:27.538Z,98930.75
2023-04-22T17:52:54.518Z,98932.66
2023-04-22T17:55:21.203Z,98927.69
2023-04-22T17:57:47.760Z,98938.38
2023-04-22T18:00:14.869Z,98933.28
2023-04-22T18:02:42.240Z,98936.00
2023-04-22T18:05:09.483Z,98925.03
2023-04-22T18:07:36.247Z,98927.03
2023-04-22T18:10:02.837Z,98925.44
2023-04-22T18:12:30.829Z,98922.13
2023-04-22T18:14:58.019Z,98918.94
2023-04-22T18:17:25.062Z,98925.25
2023-04-22T18:19:54.418Z,98930.56
2023-04-22T18:22:25.742Z,98916.94
2023-04-22T18:24:52.902Z,98917.16
2023-04-22T18:27:19.531Z,98916.38
2023-04-22T18:29:47.968Z,98914.84
2023-04-22T18:32:16.729Z,98918.44
2023-04-22T18:34:43.647Z,98921.44
2023-04-22T18:37:10.664Z,98923.19
2023-04-22T18:39:39.424Z,98922.47
2023-04-22T18:42:06.292Z,98922.66
2023-04-22T18:44:32.865Z,98921.03
2023-04-22T18:46:59.490Z,98921.19
2023-04-22T18:49:26.420Z,98922.13
2023-04-22T18:51:52.954Z,98919.69
2023-04-22T18:54:19.595Z,98926.66
2023-04-22T18:56:46.213Z,98919.84
2023-04-22T18:59:13.035Z,98911.50
2023-04-22T19:01:39.635Z,98918.38
2023-04-22T19:04:07.932Z,98913.31
2023-04-22T19:06:34.634Z,98922.88
2023-04-22T19:09:01.259Z,98916.09
2023-04-22T19:11:27.853Z,98922.09
2023-04-22T19:13:54.430Z,98907.53
2023-04-22T19:16:21.837Z,98909.28
2023-04-22T19:18:49.681Z,98908.53
2023-04-22T19:21:16.317Z,98911.16
2023-04-22T19:23:42.943Z,98906.94
2023-04-22T19:26:09.693Z,98898.41
2023-04-22T19:28:36.717Z,98901.06
2023-04-22T19:31:04.953Z,98898.50
2023-04-22T19:33:32.136Z,98901.97
2023-04-22T19:35:58.657Z,98899.41
2023-04-22T19:38:25.309Z,98898.59
2023-04-22T19:40:51.924Z,98901.25
2023-04-22T19:43:19.364Z,98898.75
2023-04-22T19:45:47.004Z,98904.00
2023-04-22T19:48:14.023Z,98899.78
2023-04-22T19:50:43.260Z,98898.09
2023-04-22T19:53:11.042Z,98892.94
2023-04-22T19:55:38.257Z,98891.25
2023-04-22T19:58:05.887Z,98893.88
2023-04-22T20:00:33.027Z,98884.44
2023-04-22T20:02:59.942Z,98888.88
2023-04-22T20:05:27.471Z,98889.00
2023-04-22T20:07:58.518Z,98893.44
2023-04-22T20:10:26.484Z,98895.25
2023-04-22T20:12:53.798Z,98895.28
2023-04-22T20:15:20.752Z,98894.56
2023-04-22T20:17:47.603Z,98891.16
2023-04-22T20:20:17.555Z,98888.63
2023-04-22T20:22:45.275Z,98884.75
2023-04-22T20:25:14.510Z,98881.09
2023-04-22T20:27:41.683Z,98881.94
2023-04-22T20:30:11.387Z,98882.84
2023-04-22T20:32:38.100Z,98882.00
2023-04-22T20:35:06.694Z,98875.09
2023-04-22T20:37:36.046Z,98876.88
2023-04-22T20:40:05.668Z,98874.34
2023-04-22T20:42:33.232Z,98868.41
2023-04-22T20:44:59.775Z,98871.03
2023-04-22T20:47:26.401Z,98863.34
2023-04-22T20:49:52.990Z,98864.16
2023-04-22T20:52:19.554Z,98865.91
2023-04-22T20:54:46.442Z,98853.75
2023-04-22T20:57:13.228Z,98845.09
2023-04-22T20:59:39.751Z,98851.09
2023-04-22T21:02:08.414Z,98848.50
2023-04-22T21:04:35.140Z,98839.81
2023-04-22T21:07:07.390Z,98841.53
2023-04-22T21:09:34.627Z,98839.81
2023-04-22T21:12:02.386Z,98837.41
2023-04-22T21:14:29.147Z,98833.97
2023-04-22T21:17:12.999Z,98827.19
2023-04-22T21:19:46.761Z,98824.66
2023-04-22T21:22:13.668Z,98824.81
2023-04-22T21:24:40.970Z,98822.31
2023-04-22T21:27:08.346Z,98819.06
2023-04-22T21:29:35.310Z,98812.38
2023-04-22T21:32:09.128Z,98817.72
2023-04-22T21:34:36.847Z,98810.94
2023-04-22T21:37:05.136Z,98812.78
2023-04-22T21:39:31.806Z,98807.59
2023-04-22T21:41:58.606Z,98811.28
2023-04-22T21:44:25.570Z,98809.56
2023-04-22T21:46:52.090Z,98807.00
2023-04-22T21:49:20.487Z,98801.94
2023-04-22T21:51:47.132Z,98796.91
2023-04-22T21:54:13.745Z,98791.72
2023-04-22T21:56:40.465Z,98790.97
2023-04-22T21:59:07.009Z,98796.22
2023-04-22T22:01:33.632Z,98790.19
2023-04-22T22:04:00.401Z,98785.06
2023-04-22T22:06:27.096Z,98785.00
2023-04-22T22:08:54.699Z,98786.81
2023-04-22T22:11:30.301Z,98786.97
2023-04-22T22:13:58.275Z,98786.09
2023-04-22T22:16:25.756Z,98778.25
2023-04-22T22:18:52.678Z,98780.16
2023-04-22T22:21:19.372Z,98771.56
2023-04-22T22:23:45.954Z,98776.97
2023-04-22T22:26:12.817Z,98770.13
2023-04-22T22:28:39.627Z,98776.94
2023-04-22T22:31:06.913Z,98773.66
2023-04-22T22:33:33.550Z,98778.81
2023-04-22T22:36:00.224Z,98773.88
2023-04-22T22:38:26.942Z,98769.53
2023-04-22T22:40:53.466Z,98766.19
2023-04-22T22:43:20.038Z,98764.66
2023-04-22T22:45:46.789Z,98765.41
2023-04-22T22:48:13.440Z,98759.59
2023-04-22T22:50:40.537Z,98763.94
2023-04-22T22:53:07.129Z,98769.09
2023-04-22T22:55:34.180Z,98757.00
2023-04-22T22:58:00.961Z,98754.47
2023-04-22T23:00:27.667Z,98744.97
2023-04-22T23:02:54.736Z,98748.44
2023-04-22T23:05:22.002Z,98743.47
2023-04-22T23:07:48.784Z,98744.31
2023-04-22T23:10:15.819Z,98741.91
2023-04-22T23:12:42.960Z,98740.25
2023-04-22T23:15:09.998Z,98735.13
2023-04-22T23:17:36.885Z,98731.63
2023-04-22T23:20:04.142Z,98720.31
2023-04-22T23:22:32.224Z,98721.38
2023-04-22T23:24:59.231Z,98719.63
2023-04-22T23:27:26.101Z,98715.25
2023-04-22T23:29:52.956Z,98710.13
2023-04-22T23:32:20.606Z,98704.94
2023-04-22T23:34:49.684Z,98705.84
2023-04-22T23:37:18.930Z,98693.88
2023-04-22T23:39:45.517Z,98689.59
2023-04-22T23:42:12.050Z,98692.22
2023-04-22T23:44:38.922Z,98687.00
2023-04-22T23:47:05.918Z,98686.97
2023-04-22T23:49:32.724Z,98685.34
2023-04-22T23:51:59.587Z,98678.56
2023-04-22T23:54:26.706Z,98676.06
2023-04-22T23:56:53.821Z,98676.81
2023-04-22T23:59:20.755Z,98676.03
